sim
Sign-in with your pilot id or email,
or register
Callsign
Passwort

Schedule Details

Flight Number: DLH2384
Departure: Munich Airport (EDDM) at 10:15
Arrival: Geneva International Airport (LSGG) at 11:30
Route: Lufthansa Passenger Schedule. Enter filed route here before submitting Pirep.

Weather Information
Getting current METAR information for EDDM 101650Z 10006KT CAVOK 16/03 Q1013 NOSIG
Getting current METAR information for LSGG 101650Z 24009KT 9999 FEW080 14/02 Q1012 NOSIG

Schedule Frequency

Route Map